Time;durP1;ratioP1;P1;durP2;ratioP2;P2;SDS_P1;SDS_P2;PMS_P1;PMS_P2;Temp;Humidity;BMP_temperature;BMP_pressure;BME280_temperature;BME280_humidity;BME280_pressure;Samples;Min_cycle;Max_cycle;Signal;HPM_P1;HPM_P2
2022/06/15 00:01:20;;;;;;;;;;;;;;;18.50;57.65;100981.38;5067781;28;1067;-64
2022/06/15 00:03:45;;;;;;;;;;;;;;;19.22;62.48;100971.91;5066486;28;1249;-64
2022/06/15 00:06:12;;;;;;;;;;;;;;;17.17;65.42;100965.84;5070526;28;895;-64
2022/06/15 00:08:37;;;;;;;;;;;;;;;18.52;70.74;100973.63;5072774;28;1170;-64
2022/06/15 00:11:04;;;;;;;;;;;;;;;18.39;64.81;100969.56;5061362;28;1013;-64
2022/06/15 00:13:29;;;;;;;;;;;;;;;16.92;71.11;100967.44;5067196;28;1020;-65
2022/06/15 00:15:55;;;;;;;;;;;;;;;17.80;66.32;100960.06;5069840;28;1275;-64
2022/06/15 00:18:20;;;;;;;;;;;;;;;18.35;61.57;100971.22;5067736;28;838;-63
2022/06/15 00:20:46;;;;;;;;;;;;;;;18.53;59.63;100974.47;5070744;28;1898;-62
2022/06/15 00:23:11;;;;;;;;;;;;;;;18.54;58.47;100981.66;5057215;28;933;-63
2022/06/15 00:25:37;;;;;;;;;;;;;;;18.52;57.77;100978.34;5064453;28;1122;-63
2022/06/15 00:28:02;;;;;;;;;;;;;;;18.51;57.40;100988.53;5066755;28;1189;-63
2022/06/15 00:30:28;;;;;;;;;;;;;;;18.73;59.60;100996.44;5054467;28;980;-64
2022/06/15 00:32:53;;;;;;;;;;;;;;;18.60;63.49;100991.53;5074566;28;981;-63
2022/06/15 00:35:19;;;;;;;;;;;;;;;17.28;70.06;101008.75;5071464;28;996;-62
2022/06/15 00:37:44;;;;;;;;;;;;;;;18.98;68.76;100994.66;5063484;28;1004;-63
2022/06/15 00:40:10;;;;;;;;;;;;;;;17.20;65.24;100992.78;5072192;28;1910;-62
2022/06/15 00:42:35;;;;;;;;;;;;;;;17.20;70.82;100990.84;5064855;28;1084;-63
2022/06/15 00:45:02;;;;;;;;;;;;;;;18.10;64.19;100986.75;5051071;28;1300;-63
2022/06/15 00:47:28;;;;;;;;;;;;;;;18.44;60.78;100988.00;5048345;28;1671;-63
2022/06/15 00:50:04;;;;;;;;;;;;;;;18.53;59.24;100985.50;5042377;28;1143;-63
2022/06/15 00:52:34;;;;;;;;;;;;;;;18.54;58.10;100984.41;5048379;28;1072;-63
2022/06/15 00:55:00;;;;;;;;;;;;;;;18.54;57.47;100982.47;5048588;28;989;-63
2022/06/15 00:57:26;;;;;;;;;;;;;;;18.76;60.22;100971.06;5048444;28;1498;-64
2022/06/15 00:59:55;;;;;;;;;;;;;;;18.39;63.50;100977.81;5047993;28;1989;-64
2022/06/15 01:02:21;;;;;;;;;;;;;;;17.64;70.79;100981.25;5071990;28;1059;-63
2022/06/15 01:04:47;;;;;;;;;;;;;;;19.27;67.39;100978.22;5068123;28;1033;-63
2022/06/15 01:07:31;;;;;;;;;;;;;;;16.86;64.66;100993.22;5067392;28;1179;-63
2022/06/15 01:10:06;;;;;;;;;;;;;;;18.07;71.77;100987.28;5074943;28;882;-63
2022/06/15 01:12:51;;;;;;;;;;;;;;;17.95;65.75;100992.28;5051279;28;1356;-63
2022/06/15 01:15:19;;;;;;;;;;;;;;;17.01;71.87;101001.53;5053083;28;1550;-63
2022/06/15 01:18:01;;;;;;;;;;;;;;;17.94;65.19;100987.88;5044647;28;1266;-63
2022/06/15 01:20:45;;;;;;;;;;;;;;;18.37;61.18;100988.31;5052519;28;1970;-63
2022/06/15 01:23:30;;;;;;;;;;;;;;;18.46;59.30;100986.59;5062707;28;926;-63
2022/06/15 01:26:14;;;;;;;;;;;;;;;18.46;58.16;100989.34;5067713;28;988;-63
2022/06/15 01:28:51;;;;;;;;;;;;;;;18.44;57.70;100988.84;5070899;28;992;-63
2022/06/15 01:31:29;;;;;;;;;;;;;;;18.49;58.04;100989.91;5054437;28;1229;-63
2022/06/15 01:34:14;;;;;;;;;;;;;;;19.32;62.68;100996.63;5071429;28;1139;-63
2022/06/15 01:36:39;;;;;;;;;;;;;;;17.18;68.96;100994.97;5059144;28;1235;-64
2022/06/15 01:39:06;;;;;;;;;;;;;;;18.93;68.90;101000.22;5051344;28;1981;-64
2022/06/15 01:41:31;;;;;;;;;;;;;;;17.50;64.82;101000.25;5062570;28;1206;-64
2022/06/15 01:43:58;;;;;;;;;;;;;;;17.01;71.49;100997.94;5066790;28;1011;-65
2022/06/15 01:46:24;;;;;;;;;;;;;;;17.98;64.47;100996.38;5051059;28;1181;-65
2022/06/15 01:48:51;;;;;;;;;;;;;;;18.36;60.91;100994.09;5050890;28;1454;-65
2022/06/15 01:51:18;;;;;;;;;;;;;;;18.47;59.25;100996.53;5040935;28;1001;-65
2022/06/15 01:53:46;;;;;;;;;;;;;;;18.48;58.22;100991.81;5061644;28;992;-65
2022/06/15 01:56:31;;;;;;;;;;;;;;;18.47;57.60;100984.69;5048779;28;1024;-66
2022/06/15 01:58:58;;;;;;;;;;;;;;;18.51;58.17;100993.19;5053833;28;1987;-65
2022/06/15 02:01:30;;;;;;;;;;;;;;;19.30;62.36;101004.38;5023146;28;1123;-66
2022/06/15 02:03:59;;;;;;;;;;;;;;;16.65;68.41;101009.63;5043025;28;1394;-64
2022/06/15 02:06:31;;;;;;;;;;;;;;;17.48;66.81;101009.84;5054067;28;1206;-66
2022/06/15 02:09:09;;;;;;;;;;;;;;;18.13;61.52;101005.44;5041075;28;1170;-65
2022/06/15 02:11:37;;;;;;;;;;;;;;;18.46;61.64;101013.31;5050230;28;957;-66
2022/06/15 02:14:07;;;;;;;;;;;;;;;19.15;63.07;101008.91;5035637;28;1337;-66
2022/06/15 02:16:38;;;;;;;;;;;;;;;17.19;68.78;101015.84;5046735;28;1295;-66
2022/06/15 02:19:08;;;;;;;;;;;;;;;18.99;68.66;101010.09;5020214;28;1902;-66
2022/06/15 02:21:34;;;;;;;;;;;;;;;17.26;65.32;101003.50;5045466;28;1143;-66
2022/06/15 02:24:00;;;;;;;;;;;;;;;17.10;71.27;101005.38;5038760;28;1464;-66
2022/06/15 02:26:27;;;;;;;;;;;;;;;18.01;64.32;101007.66;5050985;28;1133;-66
2022/06/15 02:28:54;;;;;;;;;;;;;;;18.37;61.01;101004.81;5048944;28;1118;-66
2022/06/15 02:31:19;;;;;;;;;;;;;;;18.48;59.27;101000.09;5046940;28;1218;-66
2022/06/15 02:33:49;;;;;;;;;;;;;;;18.47;58.26;100999.28;5051834;28;1071;-66
2022/06/15 02:36:14;;;;;;;;;;;;;;;18.47;57.61;101009.47;5047251;28;1130;-65
2022/06/15 02:38:42;;;;;;;;;;;;;;;18.95;61.72;101017.28;5051469;28;1020;-66
2022/06/15 02:41:09;;;;;;;;;;;;;;;17.85;64.85;101025.25;5050195;28;1909;-66
2022/06/15 02:43:34;;;;;;;;;;;;;;;17.99;71.08;101020.03;5049925;28;1233;-65
2022/06/15 02:46:00;;;;;;;;;;;;;;;19.53;65.99;101022.16;5034226;28;1109;-65
2022/06/15 02:48:28;;;;;;;;;;;;;;;16.66;68.87;101027.75;5040552;28;1143;-63
2022/06/15 02:50:59;;;;;;;;;;;;;;;17.48;68.65;101026.34;5045702;28;1183;-63
2022/06/15 02:53:26;;;;;;;;;;;;;;;18.24;62.53;101022.75;5054809;28;1159;-63
2022/06/15 02:55:52;;;;;;;;;;;;;;;18.44;60.01;101021.06;5046832;28;1194;-64
2022/06/15 02:58:23;;;;;;;;;;;;;;;18.49;58.90;101022.97;5051964;28;1403;-64
2022/06/15 03:00:51;;;;;;;;;;;;;;;18.50;57.77;101028.19;5050863;28;1918;-64
2022/06/15 03:03:22;;;;;;;;;;;;;;;18.54;58.46;101025.72;5049437;28;1459;-64
2022/06/15 03:05:50;;;;;;;;;;;;;;;19.31;62.72;101028.09;5049321;28;1292;-64
2022/06/15 03:08:18;;;;;;;;;;;;;;;17.12;67.38;101034.53;5055748;28;1143;-66
2022/06/15 03:10:48;;;;;;;;;;;;;;;18.79;69.25;101044.88;5040990;28;1339;-64
2022/06/15 03:13:13;;;;;;;;;;;;;;;17.64;64.56;101027.19;5045980;28;1422;-65
2022/06/15 03:15:39;;;;;;;;;;;;;;;16.94;71.12;101033.91;5041643;28;1541;-62
2022/06/15 03:18:05;;;;;;;;;;;;;;;17.89;64.64;101034.59;5051571;28;1128;-63
2022/06/15 03:20:30;;;;;;;;;;;;;;;18.34;60.87;101032.09;5045441;28;1914;-63
2022/06/15 03:22:58;;;;;;;;;;;;;;;18.43;59.44;101030.41;5047627;28;1186;-63
2022/06/15 03:25:24;;;;;;;;;;;;;;;18.47;58.22;101035.06;5049623;28;1347;-63
2022/06/15 03:27:50;;;;;;;;;;;;;;;18.45;57.67;101039.19;5048587;28;1119;-62
2022/06/15 03:30:16;;;;;;;;;;;;;;;18.67;59.80;101047.13;5055343;28;1210;-64
2022/06/15 03:32:48;;;;;;;;;;;;;;;18.75;63.53;101040.22;5042754;28;1563;-64
2022/06/15 03:35:16;;;;;;;;;;;;;;;17.43;70.13;101051.91;5037567;28;1219;-61
2022/06/15 03:37:42;;;;;;;;;;;;;;;19.13;67.61;101052.44;5036486;28;1210;-62
2022/06/15 03:40:26;;;;;;;;;;;;;;;16.70;64.89;101050.81;5047679;28;1902;-62
2022/06/15 03:42:53;;;;;;;;;;;;;;;17.19;69.65;101051.56;5042975;28;1240;-61
2022/06/15 03:45:20;;;;;;;;;;;;;;;18.10;62.95;101055.53;5053157;28;1414;-59
2022/06/15 03:47:45;;;;;;;;;;;;;;;18.36;60.33;101049.97;5049611;28;1273;-60
2022/06/15 03:50:12;;;;;;;;;;;;;;;18.38;58.92;101050.50;5044182;28;1225;-61
2022/06/15 03:52:38;;;;;;;;;;;;;;;18.42;58.25;101050.78;5039237;28;1420;-60
2022/06/15 03:55:04;;;;;;;;;;;;;;;18.63;60.17;101051.53;5050015;28;969;-61
2022/06/15 03:57:30;;;;;;;;;;;;;;;18.80;63.62;101045.69;5047897;28;1683;-62
2022/06/15 03:59:59;;;;;;;;;;;;;;;17.26;69.35;101049.38;5031952;28;1985;-59
2022/06/15 04:02:51;;;;;;;;;;;;;;;19.20;67.34;101054.09;5051419;28;1275;-61
2022/06/15 04:05:49;;;;;;;;;;;;;;;16.56;69.27;101057.91;5039305;28;1192;-60
2022/06/15 04:11:11;;;;;;;;;;;;;;;18.24;62.12;101050.28;5054892;28;1160;-59
2022/06/15 04:13:38;;;;;;;;;;;;;;;18.42;59.68;101073.63;5054759;28;1177;-59
2022/06/15 04:16:07;;;;;;;;;;;;;;;18.47;58.79;101062.59;5048161;28;1273;-59
2022/06/15 04:18:33;;;;;;;;;;;;;;;18.45;57.81;101066.75;5032017;28;1163;-61
2022/06/15 04:21:05;;;;;;;;;;;;;;;18.64;59.80;101070.53;5040466;28;1921;-60
2022/06/15 04:23:30;;;;;;;;;;;;;;;18.94;63.08;101073.50;5049379;28;1226;-60
2022/06/15 04:26:00;;;;;;;;;;;;;;;16.81;70.43;101061.88;5048957;28;1298;-62
2022/06/15 04:28:30;;;;;;;;;;;;;;;18.61;68.06;101064.78;5049153;28;1124;-61
2022/06/15 04:31:00;;;;;;;;;;;;;;;17.47;65.30;101064.00;5031494;28;1408;-61
2022/06/15 04:33:31;;;;;;;;;;;;;;;17.17;71.35;101065.59;5044475;28;1253;-60
2022/06/15 04:35:58;;;;;;;;;;;;;;;18.04;64.42;101072.31;5036101;28;1387;-60
2022/06/15 04:38:24;;;;;;;;;;;;;;;18.35;60.97;101077.78;5049057;28;948;-61
2022/06/15 04:40:55;;;;;;;;;;;;;;;18.43;59.49;101079.97;5049991;28;1921;-61
2022/06/15 04:43:21;;;;;;;;;;;;;;;18.43;58.54;101063.44;5043533;28;1078;-62
2022/06/15 04:45:47;;;;;;;;;;;;;;;18.42;57.69;101068.13;5037028;28;1184;-61
2022/06/15 04:48:19;;;;;;;;;;;;;;;19.07;62.50;101083.91;5051644;28;1298;-63
2022/06/15 04:50:44;;;;;;;;;;;;;;;17.44;65.10;101084.59;5044368;28;1568;-61
2022/06/15 04:53:10;;;;;;;;;;;;;;;18.15;70.94;101089.66;5044992;28;1212;-61
2022/06/15 04:55:36;;;;;;;;;;;;;;;19.11;64.92;101090.50;5043102;28;1162;-62
2022/06/15 04:58:02;;;;;;;;;;;;;;;16.83;70.59;101092.63;5045210;28;1080;-62
2022/06/15 05:00:34;;;;;;;;;;;;;;;17.69;67.29;101098.69;5040819;28;2043;-61
2022/06/15 05:03:00;;;;;;;;;;;;;;;18.34;62.31;101104.50;5043190;28;1286;-61
2022/06/15 05:05:27;;;;;;;;;;;;;;;18.51;60.09;101103.34;5043947;28;1383;-60
2022/06/15 05:07:53;;;;;;;;;;;;;;;18.49;59.00;101105.56;5027706;28;1225;-64
2022/06/15 05:10:19;;;;;;;;;;;;;;;18.50;58.24;101105.28;5045505;28;1142;-62
2022/06/15 05:12:47;;;;;;;;;;;;;;;18.47;57.52;101106.66;5049745;28;1185;-62
2022/06/15 05:15:13;;;;;;;;;;;;;;;18.92;61.25;101109.59;5049006;28;1127;-59
2022/06/15 05:17:42;;;;;;;;;;;;;;;17.87;64.62;101119.34;5041160;28;1221;-59
2022/06/15 05:20:09;;;;;;;;;;;;;;;17.91;71.26;101125.97;5047923;28;1909;-63
2022/06/15 05:22:36;;;;;;;;;;;;;;;19.53;66.02;101123.38;5038642;28;1483;-62
2022/06/15 05:25:04;;;;;;;;;;;;;;;16.74;69.28;101134.31;5040820;28;1312;-62
2022/06/15 05:27:32;;;;;;;;;;;;;;;17.58;68.44;101133.59;5041316;28;1167;-61
2022/06/15 05:29:57;;;;;;;;;;;;;;;18.28;62.85;101127.63;5052429;28;1158;-62
2022/06/15 05:32:24;;;;;;;;;;;;;;;18.50;60.49;101137.53;5047400;28;1247;-62
2022/06/15 05:34:51;;;;;;;;;;;;;;;18.57;58.91;101135.31;5047040;28;1170;-63
2022/06/15 05:37:17;;;;;;;;;;;;;;;18.54;58.44;101141.38;5053444;28;1416;-62
2022/06/15 05:39:43;;;;;;;;;;;;;;;18.55;57.66;101137.50;5053716;28;1975;-61
2022/06/15 05:42:08;;;;;;;;;;;;;;;18.60;57.86;101145.75;5047579;28;1119;-63
2022/06/15 05:44:48;;;;;;;;;;;;;;;18.54;57.36;101141.38;5049836;28;1047;-62
2022/06/15 05:47:14;;;;;;;;;;;;;;;18.50;57.01;101145.78;5052535;28;1082;-62
2022/06/15 05:49:57;;;;;;;;;;;;;;;19.17;61.46;101148.34;5039228;28;1166;-62
2022/06/15 05:52:31;;;;;;;;;;;;;;;17.31;64.88;101158.53;5048244;28;1459;-64
2022/06/15 05:54:58;;;;;;;;;;;;;;;18.29;71.36;101156.81;5045995;28;1216;-62
2022/06/15 05:57:24;;;;;;;;;;;;;;;19.42;66.97;101161.19;5041533;28;977;-60
2022/06/15 05:59:49;;;;;;;;;;;;;;;19.41;68.42;101162.34;5051995;28;1902;-62
2022/06/15 06:02:16;;;;;;;;;;;;;;;17.54;63.52;101158.03;5050083;28;1733;-62
2022/06/15 06:04:41;;;;;;;;;;;;;;;16.45;65.06;101164.06;5051454;28;1282;-61
2022/06/15 06:07:06;;;;;;;;;;;;;;;16.04;64.49;101159.06;5053594;28;962;-61
2022/06/15 06:09:32;;;;;;;;;;;;;;;17.24;71.99;101172.53;5051833;28;1225;-59
2022/06/15 06:11:58;;;;;;;;;;;;;;;18.70;70.95;101176.03;5047987;28;1245;-62
2022/06/15 06:14:23;;;;;;;;;;;;;;;19.19;66.15;101162.69;5050287;28;1277;-62
2022/06/15 06:16:49;;;;;;;;;;;;;;;19.32;60.79;101168.44;5070423;28;1661;-63
2022/06/15 06:19:14;;;;;;;;;;;;;;;19.39;57.31;101162.63;5074486;28;1972;-63
2022/06/15 06:21:40;;;;;;;;;;;;;;;19.54;56.38;101167.22;5065001;28;1479;-63
2022/06/15 06:24:06;;;;;;;;;;;;;;;18.57;63.12;101168.34;5066504;28;1574;-62
2022/06/15 06:26:31;;;;;;;;;;;;;;;16.96;64.11;101171.00;5066353;28;1052;-59
2022/06/15 06:28:58;;;;;;;;;;;;;;;16.87;69.75;101176.13;5050421;28;1369;-59
2022/06/15 06:31:23;;;;;;;;;;;;;;;18.50;72.18;101178.81;5072772;28;1055;-63
2022/06/15 06:33:49;;;;;;;;;;;;;;;18.94;66.75;101175.44;5074343;28;1044;-59
2022/06/15 06:36:29;;;;;;;;;;;;;;;16.10;70.02;101170.09;5064813;28;895;-61
2022/06/15 06:38:55;;;;;;;;;;;;;;;16.11;66.22;101174.50;5069481;28;1119;-60
2022/06/15 06:41:21;;;;;;;;;;;;;;;17.11;72.69;101176.59;5065010;28;1906;-62
2022/06/15 06:43:47;;;;;;;;;;;;;;;18.42;73.46;101181.00;5065485;28;1104;-62
2022/06/15 06:46:12;;;;;;;;;;;;;;;19.25;67.23;101178.09;5068625;28;1364;-62
2022/06/15 06:48:38;;;;;;;;;;;;;;;19.45;60.22;101177.19;5067882;28;1094;-63
2022/06/15 06:51:03;;;;;;;;;;;;;;;19.54;56.28;101181.00;5071736;28;1234;-62
2022/06/15 06:53:29;;;;;;;;;;;;;;;19.58;53.74;101186.78;5069944;28;1083;-64
2022/06/15 06:55:58;;;;;;;;;;;;;;;18.86;61.04;101182.34;5069894;28;1203;-62
2022/06/15 06:58:23;;;;;;;;;;;;;;;16.97;63.80;101184.50;5064513;28;1001;-62
2022/06/15 07:00:50;;;;;;;;;;;;;;;16.71;68.58;101192.53;5069139;28;1918;-65
2022/06/15 07:03:16;;;;;;;;;;;;;;;18.40;71.21;101191.50;5071354;28;1016;-60
2022/06/15 07:05:41;;;;;;;;;;;;;;;19.25;64.14;101189.13;5067419;28;1009;-60
2022/06/15 07:08:08;;;;;;;;;;;;;;;19.52;58.09;101182.38;5071833;28;1019;-63
2022/06/15 07:10:34;;;;;;;;;;;;;;;19.63;54.41;101189.53;5050412;28;1159;-63
2022/06/15 07:12:59;;;;;;;;;;;;;;;19.76;53.51;101191.63;5073310;28;1063;-60
2022/06/15 07:15:25;;;;;;;;;;;;;;;17.98;62.44;101188.97;5071731;28;1280;-60
2022/06/15 07:17:50;;;;;;;;;;;;;;;16.82;62.84;101185.19;5066160;28;1098;-59
2022/06/15 07:20:15;;;;;;;;;;;;;;;17.00;70.13;101191.34;5070814;28;1989;-60
2022/06/15 07:22:41;;;;;;;;;;;;;;;18.72;70.50;101198.63;5064118;28;1090;-60
2022/06/15 07:25:07;;;;;;;;;;;;;;;19.55;63.63;101195.63;5069309;28;1020;-59
2022/06/15 07:27:33;;;;;;;;;;;;;;;17.07;63.57;101192.78;5068919;28;1194;-61
2022/06/15 07:29:59;;;;;;;;;;;;;;;16.43;65.73;101199.19;5071748;28;1142;-60
2022/06/15 07:32:24;;;;;;;;;;;;;;;16.99;70.75;101206.19;5068103;28;1220;-64
2022/06/15 07:34:50;;;;;;;;;;;;;;;18.54;71.68;101207.47;5068815;28;1434;-63
2022/06/15 07:37:15;;;;;;;;;;;;;;;19.46;65.42;101198.97;5064316;28;1036;-63
2022/06/15 07:39:41;;;;;;;;;;;;;;;19.66;59.09;101205.50;5070927;28;1981;-64
2022/06/15 07:42:08;;;;;;;;;;;;;;;19.75;54.99;101206.53;5075810;28;1480;-60
2022/06/15 07:44:34;;;;;;;;;;;;;;;18.85;60.12;101202.72;5068312;28;984;-61
2022/06/15 07:49:59;;;;;;;;;;;;;;;16.50;67.46;101204.47;5070283;28;1130;-62
2022/06/15 07:52:26;;;;;;;;;;;;;;;18.37;71.22;101203.06;5068772;28;1043;-61
2022/06/15 07:54:51;;;;;;;;;;;;;;;19.37;66.48;101208.94;5066032;28;1226;-62
2022/06/15 07:57:17;;;;;;;;;;;;;;;17.21;64.24;101206.88;5071796;28;1242;-63
2022/06/15 07:59:42;;;;;;;;;;;;;;;16.53;66.51;101210.22;5074049;28;1974;-62
2022/06/15 08:02:08;;;;;;;;;;;;;;;16.58;64.22;101206.72;5072118;28;1249;-61
2022/06/15 08:04:33;;;;;;;;;;;;;;;16.25;68.29;101214.13;5049548;28;1313;-62
2022/06/15 08:06:59;;;;;;;;;;;;;;;17.76;72.44;101218.34;5071585;28;1210;-64
2022/06/15 08:09:24;;;;;;;;;;;;;;;18.34;68.77;101211.88;5071730;28;1328;-63
2022/06/15 08:14:34;;;;;;;;;;;;;;;17.67;65.67;101211.72;5072420;28;1274;-61
2022/06/15 08:17:00;;;;;;;;;;;;;;;15.87;72.90;101215.94;5065928;28;1043;-60
2022/06/15 08:19:25;;;;;;;;;;;;;;;17.98;74.22;101216.50;5069957;28;2016;-60
2022/06/15 08:21:51;;;;;;;;;;;;;;;18.65;66.99;101209.09;5063098;28;1242;-60
2022/06/15 08:24:16;;;;;;;;;;;;;;;19.18;60.01;101222.53;5069739;28;1393;-61
2022/06/15 08:26:43;;;;;;;;;;;;;;;19.42;63.46;101216.34;5069002;28;1273;-62
2022/06/15 08:29:10;;;;;;;;;;;;;;;17.94;70.34;101221.72;5050045;28;1197;-61
2022/06/15 08:31:36;;;;;;;;;;;;;;;19.40;66.36;101213.88;5059231;28;1203;-62
2022/06/15 08:34:02;;;;;;;;;;;;;;;18.46;66.60;101217.91;5063520;28;1286;-64
2022/06/15 08:36:27;;;;;;;;;;;;;;;17.56;64.94;101218.28;5070119;28;1098;-64
2022/06/15 08:38:52;;;;;;;;;;;;;;;16.70;66.00;101226.56;5068236;28;1187;-65
2022/06/15 08:41:22;;;;;;;;;;;;;;;16.21;64.05;101219.28;5071566;28;1901;-64
2022/06/15 08:43:52;;;;;;;;;;;;;;;17.17;71.00;101224.16;5074239;28;1214;-64
2022/06/15 08:46:20;;;;;;;;;;;;;;;18.64;72.35;101232.22;5054113;28;1311;-65
2022/06/15 08:48:50;;;;;;;;;;;;;;;19.27;66.68;101226.34;5067789;28;1298;-64
2022/06/15 08:51:30;;;;;;;;;;;;;;;15.09;69.80;101229.75;5049678;28;1773;-64
2022/06/15 08:54:06;;;;;;;;;;;;;;;18.20;71.25;101230.00;5073695;28;1123;-65
2022/06/15 08:56:42;;;;;;;;;;;;;;;19.29;63.75;101228.81;5066671;28;1158;-65
2022/06/15 08:59:13;;;;;;;;;;;;;;;19.45;57.96;101230.41;5069241;28;1917;-65
2022/06/15 09:01:54;;;;;;;;;;;;;;;19.82;58.12;101229.19;5069684;28;1348;-64
2022/06/15 09:04:28;;;;;;;;;;;;;;;17.66;64.80;101234.81;5065928;28;1155;-65
2022/06/15 09:06:53;;;;;;;;;;;;;;;16.40;66.93;101238.97;5066641;28;1446;-64
2022/06/15 09:09:30;;;;;;;;;;;;;;;16.48;69.35;101231.31;5073171;28;1088;-64
2022/06/15 09:12:49;;;;;;;;;;;;;;;18.02;72.88;101234.94;5067379;28;1119;-65
2022/06/15 09:15:09;;;;;;;;;;;;;;;18.63;65.39;101239.69;5055527;28;1426;-62
2022/06/15 09:17:35;;;;;;;;;;;;;;;19.63;65.27;101233.66;5065319;28;1341;-62
2022/06/15 09:20:03;;;;;;;;;;;;;;;17.51;63.53;101241.06;5047581;28;1913;-62
2022/06/15 09:22:29;;;;;;;;;;;;;;;16.43;65.68;101238.44;5050656;28;1008;-62
2022/06/15 09:25:00;;;;;;;;;;;;;;;17.10;71.80;101238.94;5042980;28;1232;-62
2022/06/15 09:27:36;;;;;;;;;;;;;;;17.95;68.56;101250.91;5066755;28;1270;-62
2022/06/15 09:30:10;;;;;;;;;;;;;;;19.35;68.37;101249.78;5072130;28;1312;-61
2022/06/15 09:32:42;;;;;;;;;;;;;;;17.84;64.94;101243.66;5047893;28;1199;-62
2022/06/15 09:35:16;;;;;;;;;;;;;;;16.34;61.79;101242.75;5071755;28;1229;-62
2022/06/15 09:37:42;;;;;;;;;;;;;;;17.10;67.33;101247.19;5069629;28;1356;-63
2022/06/15 09:40:08;;;;;;;;;;;;;;;18.62;67.87;101250.94;5046483;28;1997;-62
2022/06/15 09:42:42;;;;;;;;;;;;;;;19.43;65.44;101246.44;5061982;28;1222;-60
2022/06/15 09:45:07;;;;;;;;;;;;;;;19.57;59.29;101241.16;5064177;28;1269;-60
2022/06/15 09:47:36;;;;;;;;;;;;;;;19.65;55.60;101240.53;5068762;28;1424;-63
2022/06/15 09:50:04;;;;;;;;;;;;;;;18.76;60.87;101256.72;5071050;28;1175;-62
2022/06/15 09:52:45;;;;;;;;;;;;;;;17.14;63.58;101254.91;5067401;28;1374;-63
2022/06/15 09:55:27;;;;;;;;;;;;;;;16.32;65.09;101242.16;5074945;28;1031;-62
2022/06/15 09:57:52;;;;;;;;;;;;;;;16.24;64.93;101250.88;5057722;28;1027;-62
2022/06/15 10:00:18;;;;;;;;;;;;;;;17.06;70.01;101256.25;5075017;28;1972;-61
2022/06/15 10:02:45;;;;;;;;;;;;;;;18.23;72.90;101255.06;5068186;28;1035;-60
2022/06/15 10:05:15;;;;;;;;;;;;;;;19.04;68.91;101254.53;5068931;28;1122;-59
2022/06/15 10:07:42;;;;;;;;;;;;;;;19.31;61.59;101266.03;5061813;28;1013;-62
2022/06/15 10:10:18;;;;;;;;;;;;;;;19.56;56.69;101257.94;5051965;28;1016;-65
2022/06/15 10:13:01;;;;;;;;;;;;;;;19.92;58.09;101255.91;5046950;28;1212;-63
2022/06/15 10:15:29;;;;;;;;;;;;;;;16.94;61.08;101253.66;5072988;28;1047;-62
2022/06/15 10:17:57;;;;;;;;;;;;;;;17.25;68.59;101259.34;5062494;28;1124;-59
2022/06/15 10:20:32;;;;;;;;;;;;;;;19.10;67.08;101259.75;5052455;28;1914;-59
2022/06/15 10:22:58;;;;;;;;;;;;;;;19.72;60.92;101250.44;5068308;28;1222;-60
2022/06/15 10:25:24;;;;;;;;;;;;;;;17.44;60.95;101246.81;5069545;28;1233;-61
2022/06/15 10:27:51;;;;;;;;;;;;;;;16.67;65.46;101260.03;5053227;28;1400;-60
2022/06/15 10:30:20;;;;;;;;;;;;;;;16.40;65.38;101252.69;5072003;28;1111;-62
2022/06/15 10:33:00;;;;;;;;;;;;;;;17.08;71.35;101252.13;5073122;28;1280;-61
2022/06/15 10:35:25;;;;;;;;;;;;;;;18.96;71.02;101254.00;5060233;28;1259;-62
2022/06/15 10:37:51;;;;;;;;;;;;;;;18.79;65.67;101254.25;5066900;28;953;-63
2022/06/15 10:40:17;;;;;;;;;;;;;;;16.89;63.29;101251.72;5069742;28;1979;-64
2022/06/15 10:42:45;;;;;;;;;;;;;;;16.47;66.49;101248.91;5062148;28;1146;-65
2022/06/15 10:45:24;;;;;;;;;;;;;;;16.29;65.02;101250.13;5053572;28;1282;-66
2022/06/15 10:48:09;;;;;;;;;;;;;;;17.33;72.80;101247.84;5052669;28;1199;-62
2022/06/15 10:50:46;;;;;;;;;;;;;;;18.88;72.57;101246.28;5070926;28;1203;-62
2022/06/15 10:53:30;;;;;;;;;;;;;;;19.41;66.31;101243.13;5065030;28;1207;-64
2022/06/15 11:04:25;;;;;;;;;;;;;;;15.71;68.21;101245.06;5068825;28;1227;-60
2022/06/15 11:06:59;;;;;;;;;;;;;;;17.72;75.56;101252.16;5055354;28;1354;-60
2022/06/15 11:09:29;;;;;;;;;;;;;;;18.94;71.45;101250.69;5066344;28;976;-58
2022/06/15 11:11:55;;;;;;;;;;;;;;;19.61;62.33;101247.72;5066158;28;1091;-59
2022/06/15 11:14:24;;;;;;;;;;;;;;;18.82;63.02;101241.88;5065336;28;1314;-60
2022/06/15 11:19:34;;;;;;;;;;;;;;;16.75;63.27;101245.81;5067850;28;1964;-62
2022/06/15 11:22:04;;;;;;;;;;;;;;;17.12;69.99;101251.59;5052566;28;1233;-59
2022/06/15 11:24:45;;;;;;;;;;;;;;;18.74;73.44;101251.50;5074514;28;1075;-62
2022/06/15 11:27:33;;;;;;;;;;;;;;;19.47;68.14;101254.97;5072502;28;1181;-63
2022/06/15 11:30:11;;;;;;;;;;;;;;;17.33;63.43;101253.34;5050610;28;1072;-63
2022/06/15 11:32:39;;;;;;;;;;;;;;;16.68;66.23;101245.22;5048888;28;1337;-63
2022/06/15 11:35:05;;;;;;;;;;;;;;;16.53;65.45;101248.66;5071393;28;1233;-61
2022/06/15 11:37:42;;;;;;;;;;;;;;;16.84;68.68;101253.59;5069571;28;1417;-60
2022/06/15 11:40:26;;;;;;;;;;;;;;;18.07;73.50;101259.72;5061994;28;1973;-59
2022/06/15 11:42:53;;;;;;;;;;;;;;;19.32;72.69;101258.56;5070080;28;1250;-61
2022/06/15 11:45:19;;;;;;;;;;;;;;;19.79;65.31;101254.56;5052597;28;1156;-59
2022/06/15 11:47:45;;;;;;;;;;;;;;;19.86;58.67;101245.16;5041435;28;1282;-59
2022/06/15 11:50:14;;;;;;;;;;;;;;;17.69;63.46;101253.53;5061755;28;1246;-61
2022/06/15 11:52:39;;;;;;;;;;;;;;;17.02;66.23;101249.63;5071324;28;1115;-60
2022/06/15 11:55:07;;;;;;;;;;;;;;;16.62;66.60;101250.94;5055603;28;976;-59
2022/06/15 11:58:10;;;;;;;;;;;;;;;17.87;72.37;101259.66;5064893;28;1312;-60
2022/06/15 12:00:48;;;;;;;;;;;;;;;19.48;71.90;101256.63;4987962;28;1906;-63
2022/06/15 12:03:22;;;;;;;;;;;;;;;18.37;63.58;101251.78;4991163;28;1192;-60
2022/06/15 12:05:51;;;;;;;;;;;;;;;16.90;63.51;101247.06;5036240;28;1247;-59
2022/06/15 12:08:20;;;;;;;;;;;;;;;18.45;72.35;101260.34;5051973;28;1255;-60
2022/06/15 12:10:48;;;;;;;;;;;;;;;19.48;67.38;101265.69;5067029;28;1203;-60
2022/06/15 12:13:33;;;;;;;;;;;;;;;17.38;62.77;101260.81;5049549;28;1219;-59
2022/06/15 12:16:07;;;;;;;;;;;;;;;17.32;71.59;101259.13;5077331;28;1314;-59
2022/06/15 12:18:51;;;;;;;;;;;;;;;18.72;71.92;101267.50;5062127;28;1316;-61
2022/06/15 12:21:29;;;;;;;;;;;;;;;19.67;61.79;101262.34;5061519;28;1187;-62
2022/06/15 12:24:09;;;;;;;;;;;;;;;18.24;65.72;101265.00;5064431;28;968;-61
2022/06/15 12:26:35;;;;;;;;;;;;;;;17.24;64.68;101257.72;5058621;28;1036;-62
2022/06/15 12:29:02;;;;;;;;;;;;;;;17.40;70.85;101255.88;5062360;28;1226;-64
2022/06/15 12:31:47;;;;;;;;;;;;;;;18.84;73.56;101258.13;5070024;28;1138;-60
2022/06/15 12:34:15;;;;;;;;;;;;;;;19.79;64.73;101254.56;5062223;28;1948;-58
2022/06/15 12:36:47;;;;;;;;;;;;;;;17.83;61.71;101244.78;5060888;28;1194;-56
2022/06/15 12:39:48;;;;;;;;;;;;;;;16.98;65.28;101240.25;5064540;28;1229;-57
2022/06/15 12:42:14;;;;;;;;;;;;;;;17.52;70.65;101241.91;4998618;28;1064;-54
2022/06/15 12:44:59;;;;;;;;;;;;;;;18.83;71.33;101231.66;5053567;28;1215;-56
2022/06/15 12:47:25;;;;;;;;;;;;;;;19.08;66.87;101239.94;5063268;28;1174;-56
2022/06/15 12:49:55;;;;;;;;;;;;;;;17.33;62.99;101228.63;5063128;28;1219;-55
2022/06/15 12:52:20;;;;;;;;;;;;;;;17.05;65.90;101233.41;5060816;28;1163;-57
2022/06/15 12:54:48;;;;;;;;;;;;;;;17.05;65.43;101227.09;5064410;28;1914;-58
2022/06/15 12:57:20;;;;;;;;;;;;;;;16.80;64.35;101214.81;5065280;28;1235;-60
2022/06/15 12:59:48;;;;;;;;;;;;;;;17.36;69.89;101217.13;5062507;28;979;-60
2022/06/15 13:02:16;;;;;;;;;;;;;;;18.46;73.30;101212.41;5064292;28;1111;-60
2022/06/15 13:04:54;;;;;;;;;;;;;;;19.49;71.41;101209.44;5064355;28;988;-59
2022/06/15 13:07:24;;;;;;;;;;;;;;;19.93;63.46;101204.28;5060843;28;1200;-57
2022/06/15 13:10:08;;;;;;;;;;;;;;;18.71;60.36;101196.97;5066567;28;1213;-58
2022/06/15 13:12:47;;;;;;;;;;;;;;;17.27;65.47;101196.72;5067079;28;1048;-59
2022/06/15 13:15:20;;;;;;;;;;;;;;;16.89;66.51;101196.78;5093195;28;1937;-58
2022/06/15 13:18:06;;;;;;;;;;;;;;;16.71;65.05;101195.28;5085660;28;1198;-59
2022/06/15 13:20:53;;;;;;;;;;;;;;;17.82;72.39;101199.09;5095819;28;1024;-59